createdAt,value
2022-08-17T00:00:43.332Z,16.20
2022-08-17T00:03:15.317Z,17.80
2022-08-17T00:08:26.343Z,18.00
2022-08-17T00:10:55.247Z,17.90
2022-08-17T00:13:30.991Z,21.80
2022-08-17T00:16:06.021Z,19.20
2022-08-17T00:19:06.103Z,18.50
2022-08-17T00:21:25.251Z,17.50
2022-08-17T00:23:55.165Z,18.90
2022-08-17T00:26:34.694Z,17.80
2022-08-17T00:29:19.697Z,16.20
2022-08-17T00:31:49.573Z,17.50
2022-08-17T00:34:18.179Z,16.70
2022-08-17T00:36:46.208Z,17.40
2022-08-17T00:39:14.006Z,18.50
2022-08-17T00:41:42.812Z,18.50
2022-08-17T00:44:12.543Z,17.60
2022-08-17T00:46:47.747Z,17.10
2022-08-17T00:49:19.683Z,17.20
2022-08-17T00:52:00.531Z,17.80
2022-08-17T00:54:33.549Z,16.40
2022-08-17T00:57:15.681Z,15.40
2022-08-17T01:00:01.902Z,16.60
2022-08-17T01:02:50.887Z,15.60
2022-08-17T01:05:23.994Z,15.60
2022-08-17T01:07:54.843Z,16.70
2022-08-17T01:10:59.609Z,16.20
2022-08-17T01:13:30.780Z,16.20
2022-08-17T01:16:06.928Z,17.10
2022-08-17T01:18:35.076Z,16.70
2022-08-17T01:21:14.322Z,17.10
2022-08-17T01:23:42.692Z,17.40
2022-08-17T01:26:10.601Z,17.70
2022-08-17T01:28:54.974Z,18.00
2022-08-17T01:31:29.068Z,17.60
2022-08-17T01:34:00.282Z,16.00
2022-08-17T01:36:30.761Z,17.10
2022-08-17T01:39:00.247Z,17.00
2022-08-17T01:41:29.419Z,19.00
2022-08-17T01:44:01.763Z,17.00
2022-08-17T01:46:34.261Z,18.50
2022-08-17T01:49:07.031Z,18.40
2022-08-17T01:51:45.430Z,17.40
2022-08-17T01:54:17.338Z,17.20
2022-08-17T01:56:48.742Z,16.50
2022-08-17T01:59:18.967Z,16.60
2022-08-17T02:01:47.715Z,16.20
2022-08-17T02:04:16.631Z,17.90
2022-08-17T02:06:54.034Z,16.60
2022-08-17T02:09:26.068Z,17.90
2022-08-17T02:11:59.860Z,17.90
2022-08-17T02:14:47.788Z,16.50
2022-08-17T02:17:15.831Z,16.20
2022-08-17T02:19:43.874Z,16.90
2022-08-17T02:22:12.209Z,16.40
2022-08-17T02:24:58.722Z,17.40
2022-08-17T02:27:28.704Z,16.80
2022-08-17T02:30:01.565Z,15.80
2022-08-17T02:32:29.708Z,16.70
2022-08-17T02:34:58.974Z,15.00
2022-08-17T02:37:28.128Z,16.10
2022-08-17T02:39:58.500Z,16.20
2022-08-17T02:42:31.662Z,15.00
2022-08-17T02:45:00.881Z,16.90
2022-08-17T02:47:29.957Z,17.50
2022-08-17T02:49:58.046Z,16.40
2022-08-17T02:52:43.623Z,15.30
2022-08-17T02:55:24.954Z,15.90
2022-08-17T02:57:53.673Z,16.40
2022-08-17T03:00:34.071Z,15.20
2022-08-17T03:03:05.513Z,15.40
2022-08-17T03:05:36.277Z,15.70
2022-08-17T03:08:07.138Z,15.40
2022-08-17T03:10:39.756Z,15.00
2022-08-17T03:13:07.780Z,16.20
2022-08-17T03:15:36.586Z,15.60
2022-08-17T03:18:08.913Z,15.50
2022-08-17T03:20:47.183Z,21.80
2022-08-17T03:23:15.553Z,17.60
2022-08-17T03:25:46.580Z,17.20
2022-08-17T03:28:22.597Z,16.70
2022-08-17T03:30:51.623Z,17.00
2022-08-17T03:33:19.920Z,17.70
2022-08-17T03:35:47.962Z,16.90
2022-08-17T03:38:17.434Z,15.00
2022-08-17T03:40:57.810Z,16.10
2022-08-17T03:43:31.384Z,18.20
2022-08-17T03:46:27.570Z,17.20
2022-08-17T03:49:19.466Z,16.70
2022-08-17T03:52:06.570Z,17.90
2022-08-17T03:54:53.392Z,17.30
2022-08-17T03:57:21.757Z,16.20
2022-08-17T03:59:51.066Z,16.30
2022-08-17T04:02:24.343Z,18.40
2022-08-17T04:04:52.687Z,17.50
2022-08-17T04:07:22.936Z,18.10
2022-08-17T04:09:50.759Z,20.10
2022-08-17T04:12:21.872Z,20.00
2022-08-17T04:14:56.956Z,20.30
2022-08-17T04:17:29.747Z,19.40
2022-08-17T04:19:58.171Z,17.70
2022-08-17T04:22:31.073Z,16.20
2022-08-17T04:25:17.989Z,16.50
2022-08-17T04:27:45.989Z,16.00
2022-08-17T04:30:15.037Z,15.60
2022-08-17T04:33:04.810Z,16.20
2022-08-17T04:35:51.210Z,16.30
2022-08-17T04:38:28.446Z,17.10
2022-08-17T04:41:16.463Z,18.60
2022-08-17T04:43:47.218Z,17.70
2022-08-17T04:46:18.762Z,18.20
2022-08-17T04:48:54.803Z,18.70
2022-08-17T04:51:32.615Z,18.50
2022-08-17T04:54:10.829Z,18.50
2022-08-17T04:56:39.710Z,17.40
2022-08-17T04:59:36.377Z,18.00
2022-08-17T05:02:04.412Z,18.60
2022-08-17T05:04:34.361Z,17.30
2022-08-17T05:07:04.730Z,16.30
2022-08-17T05:09:32.790Z,17.90
2022-08-17T05:12:04.198Z,16.40
2022-08-17T05:14:35.680Z,17.10
2022-08-17T05:17:07.336Z,15.60
2022-08-17T05:19:39.712Z,17.50
2022-08-17T05:22:12.114Z,16.20
2022-08-17T05:24:43.658Z,16.40
2022-08-17T05:27:23.521Z,16.50
2022-08-17T05:29:52.403Z,16.60
2022-08-17T05:32:38.701Z,16.60
2022-08-17T05:35:08.521Z,16.60
2022-08-17T05:37:36.522Z,15.50
2022-08-17T05:40:05.273Z,16.70
2022-08-17T05:42:33.255Z,15.10
2022-08-17T05:45:01.292Z,15.70
2022-08-17T05:47:30.678Z,14.70
2022-08-17T05:49:59.553Z,14.90
2022-08-17T05:52:59.239Z,14.70
2022-08-17T05:55:51.022Z,15.20
2022-08-17T05:58:25.155Z,15.70
2022-08-17T06:01:13.552Z,15.70
2022-08-17T06:04:07.263Z,15.00
2022-08-17T06:06:48.829Z,15.70
2022-08-17T06:09:40.800Z,15.30
2022-08-17T06:12:37.341Z,14.00
2022-08-17T06:15:26.338Z,15.00
2022-08-17T06:18:04.054Z,15.80
2022-08-17T06:20:55.185Z,14.50
2022-08-17T06:23:49.758Z,15.20
2022-08-17T06:26:38.283Z,15.40
2022-08-17T06:30:02.448Z,15.60
2022-08-17T06:32:31.386Z,14.80
2022-08-17T06:35:02.934Z,14.90
2022-08-17T06:37:39.872Z,15.60
2022-08-17T06:40:34.846Z,14.60
2022-08-17T06:43:48.172Z,12.40
2022-08-17T06:46:27.584Z,15.40
2022-08-17T06:49:08.462Z,14.40
2022-08-17T06:51:41.274Z,13.50
2022-08-17T06:54:33.799Z,13.80
2022-08-17T06:57:15.146Z,12.20
2022-08-17T06:59:55.477Z,14.30
2022-08-17T07:02:52.579Z,13.80
2022-08-17T07:05:36.755Z,13.50
2022-08-17T07:08:41.960Z,13.10
2022-08-17T07:11:14.759Z,13.30
2022-08-17T07:13:55.190Z,15.30
2022-08-17T07:16:42.678Z,12.10
2022-08-17T07:19:10.845Z,11.20
2022-08-17T07:22:03.862Z,13.20
2022-08-17T07:24:57.409Z,12.30
2022-08-17T07:27:38.277Z,12.60
2022-08-17T07:30:26.223Z,13.30
2022-08-17T07:33:07.051Z,12.70
2022-08-17T07:35:48.388Z,12.10
2022-08-17T07:38:30.485Z,11.30
2022-08-17T07:41:02.796Z,12.70
2022-08-17T07:43:40.228Z,11.90
2022-08-17T07:46:30.292Z,13.70
2022-08-17T07:49:09.024Z,12.90
2022-08-17T07:51:56.668Z,12.60
2022-08-17T07:54:30.399Z,12.20
2022-08-17T07:57:26.631Z,12.00
2022-08-17T07:59:58.774Z,11.10
2022-08-17T08:03:00.982Z,10.90
2022-08-17T08:05:46.681Z,10.90
2022-08-17T08:08:26.518Z,10.20
2022-08-17T08:11:02.382Z,10.30
2022-08-17T08:13:32.718Z,10.00
2022-08-17T08:16:27.679Z,9.30
2022-08-17T08:18:59.642Z,12.10
2022-08-17T08:21:47.843Z,8.30
2022-08-17T08:24:30.120Z,10.60
2022-08-17T08:27:27.508Z,9.20
2022-08-17T08:30:19.665Z,9.80
2022-08-17T08:34:59.029Z,12.70
2022-08-17T08:37:51.016Z,10.40
2022-08-17T08:40:50.641Z,10.30
2022-08-17T08:43:27.275Z,9.60
2022-08-17T08:45:58.284Z,9.50
2022-08-17T08:48:55.657Z,11.00
2022-08-17T08:51:47.233Z,10.60
2022-08-17T08:54:48.256Z,10.10
2022-08-17T08:57:33.471Z,10.30
2022-08-17T09:00:23.269Z,11.40
2022-08-17T09:03:18.177Z,11.00
2022-08-17T09:06:32.018Z,10.60
2022-08-17T09:09:27.136Z,10.60
2022-08-17T09:12:18.304Z,10.40
2022-08-17T09:15:12.406Z,10.00
2022-08-17T09:18:14.632Z,11.60
2022-08-17T09:20:58.051Z,10.60
2022-08-17T09:23:34.669Z,10.80
2022-08-17T09:26:24.254Z,11.30
2022-08-17T09:29:00.403Z,13.20
2022-08-17T09:31:49.068Z,11.50
2022-08-17T09:34:31.979Z,11.50
2022-08-17T09:37:20.339Z,11.00
2022-08-17T09:40:16.420Z,10.70
2022-08-17T09:42:50.010Z,11.20
2022-08-17T09:45:36.855Z,10.00
2022-08-17T09:48:31.105Z,10.00
2022-08-17T09:51:27.322Z,11.80
2022-08-17T09:54:14.747Z,10.60
2022-08-17T09:57:25.814Z,12.40
2022-08-17T10:00:11.208Z,9.90
2022-08-17T10:05:39.341Z,8.30
2022-08-17T10:08:41.718Z,8.70
2022-08-17T10:11:20.207Z,9.40
2022-08-17T10:14:36.086Z,9.20
2022-08-17T10:18:04.857Z,9.10
2022-08-17T10:21:25.331Z,9.70
2022-08-17T10:24:33.564Z,9.40
2022-08-17T10:27:12.746Z,9.60
2022-08-17T10:29:54.051Z,10.10
2022-08-17T10:33:30.491Z,9.90
2022-08-17T10:36:21.674Z,8.70
2022-08-17T10:39:29.699Z,10.20
2022-08-17T10:42:51.805Z,9.50
2022-08-17T10:46:45.453Z,9.20
2022-08-17T10:49:22.892Z,9.90
2022-08-17T10:56:47.968Z,9.00
2022-08-17T11:00:07.995Z,8.40
2022-08-17T11:04:41.730Z,8.80
2022-08-17T11:08:24.733Z,7.50
2022-08-17T11:11:35.030Z,8.90
2022-08-17T11:31:22.466Z,7.90
2022-08-17T11:43:10.944Z,9.30
2022-08-17T11:46:06.699Z,9.80
2022-08-17T11:49:21.118Z,9.00
2022-08-17T11:52:01.570Z,9.10
2022-08-17T11:54:44.422Z,8.80
2022-08-17T11:57:27.419Z,9.10
2022-08-17T12:00:11.174Z,9.10
2022-08-17T12:02:48.133Z,8.80
2022-08-17T12:05:17.649Z,9.50
2022-08-17T12:07:52.149Z,9.40
2022-08-17T12:10:31.911Z,8.60
2022-08-17T12:13:06.921Z,8.20
2022-08-17T12:15:41.563Z,8.00
2022-08-17T12:18:19.705Z,7.90
2022-08-17T12:21:02.600Z,7.40
2022-08-17T12:23:57.175Z,8.60
2022-08-17T12:26:30.523Z,7.60
2022-08-17T12:31:44.614Z,7.40
2022-08-17T12:34:47.847Z,9.90
2022-08-17T12:37:21.150Z,7.60
2022-08-17T12:40:22.764Z,7.50
2022-08-17T12:43:06.926Z,7.90
2022-08-17T12:45:42.165Z,11.00
2022-08-17T12:48:13.979Z,13.10
2022-08-17T12:50:47.167Z,10.90
2022-08-17T12:53:20.470Z,9.90
2022-08-17T12:55:52.218Z,10.30
2022-08-17T12:58:24.977Z,11.30
2022-08-17T13:01:03.123Z,9.00
2022-08-17T13:03:45.085Z,9.20
2022-08-17T13:06:15.111Z,10.60
2022-08-17T13:08:50.451Z,9.80
2022-08-17T13:11:26.827Z,11.00
2022-08-17T13:13:56.895Z,10.20
2022-08-17T13:16:33.655Z,10.80
2022-08-17T13:19:18.713Z,10.10
2022-08-17T13:22:24.734Z,9.80
2022-08-17T13:25:09.370Z,9.60
2022-08-17T13:27:42.586Z,9.50
2022-08-17T13:30:12.599Z,10.30
2022-08-17T13:32:45.113Z,9.90
2022-08-17T13:35:39.765Z,10.90
2022-08-17T13:38:13.292Z,10.20
2022-08-17T13:40:48.632Z,9.90
2022-08-17T13:43:39.162Z,10.50
2022-08-17T13:46:11.480Z,10.20
2022-08-17T13:48:40.181Z,11.30
2022-08-17T13:51:17.434Z,9.30
2022-08-17T13:53:45.292Z,9.40
2022-08-17T13:56:37.949Z,10.60
2022-08-17T14:02:16.173Z,9.60
2022-08-17T14:05:06.302Z,8.80
2022-08-17T14:07:40.454Z,8.80
2022-08-17T14:10:17.819Z,9.70
2022-08-17T14:12:46.660Z,9.60
2022-08-17T14:15:17.879Z,9.30
2022-08-17T14:17:52.374Z,10.30
2022-08-17T14:20:22.784Z,10.70
2022-08-17T14:22:55.892Z,11.60
2022-08-17T14:25:29.415Z,11.20
2022-08-17T14:30:30.110Z,11.30
2022-08-17T14:32:58.959Z,10.60
2022-08-17T14:35:29.003Z,10.90
2022-08-17T14:38:02.768Z,10.30
2022-08-17T14:40:30.785Z,11.30
2022-08-17T14:42:59.372Z,10.00
2022-08-17T14:45:32.702Z,10.20
2022-08-17T14:48:07.905Z,10.30
2022-08-17T14:50:39.415Z,9.90
2022-08-17T14:53:13.979Z,10.50
2022-08-17T14:55:42.666Z,11.50
2022-08-17T14:58:12.030Z,10.70
2022-08-17T15:00:41.413Z,11.50
2022-08-17T15:03:17.116Z,11.00
2022-08-17T15:05:46.765Z,11.10
2022-08-17T15:08:16.793Z,10.60
2022-08-17T15:10:44.853Z,10.80
2022-08-17T15:13:20.225Z,10.80
2022-08-17T15:15:49.538Z,11.00
2022-08-17T15:18:18.685Z,11.00
2022-08-17T15:20:49.321Z,10.50
2022-08-17T15:23:20.275Z,12.40
2022-08-17T15:25:50.742Z,11.10
2022-08-17T15:28:22.850Z,11.70
2022-08-17T15:30:52.488Z,12.00
2022-08-17T15:33:24.167Z,11.40
2022-08-17T15:35:53.919Z,10.50
2022-08-17T15:38:23.527Z,10.30
2022-08-17T15:40:52.399Z,10.90
2022-08-17T15:43:27.953Z,10.90
2022-08-17T15:46:05.443Z,11.40
2022-08-17T15:48:43.997Z,11.10
2022-08-17T15:51:16.351Z,11.90
2022-08-17T15:53:47.547Z,11.00
2022-08-17T15:56:16.359Z,12.30
2022-08-17T15:58:47.580Z,11.10
2022-08-17T16:03:14.013Z,10.40
2022-08-17T16:04:30.152Z,11.40
2022-08-17T16:06:55.767Z,10.90
2022-08-17T16:09:23.749Z,11.60
2022-08-17T16:11:53.747Z,11.50
2022-08-17T16:14:34.128Z,11.20
2022-08-17T16:17:05.272Z,11.10
2022-08-17T16:19:53.354Z,11.10
2022-08-17T16:22:40.405Z,10.70
2022-08-17T16:25:14.131Z,10.80
2022-08-17T16:27:53.491Z,11.70
2022-08-17T16:30:25.418Z,10.70
2022-08-17T16:32:56.680Z,11.30
2022-08-17T16:35:27.396Z,10.50
2022-08-17T16:37:58.903Z,11.00
2022-08-17T16:40:29.710Z,9.50
2022-08-17T16:43:01.794Z,10.10
2022-08-17T16:45:36.583Z,9.20
2022-08-17T16:48:05.234Z,10.70
2022-08-17T16:50:36.884Z,9.90
2022-08-17T16:53:09.105Z,8.80
2022-08-17T16:55:37.944Z,9.70
2022-08-17T16:58:06.988Z,10.30
2022-08-17T17:00:36.560Z,9.80
2022-08-17T17:03:19.881Z,11.00
2022-08-17T17:05:59.426Z,11.50
2022-08-17T17:08:44.367Z,10.10
2022-08-17T17:11:26.053Z,11.20
2022-08-17T17:14:01.690Z,12.30
2022-08-17T17:16:51.589Z,12.30
2022-08-17T17:19:49.801Z,14.60
2022-08-17T17:22:37.563Z,17.30
2022-08-17T17:26:03.104Z,218.20
2022-08-17T17:29:47.692Z,181.80
2022-08-17T17:32:32.964Z,111.40
2022-08-17T17:35:19.661Z,35.40
2022-08-17T17:42:30.570Z,17.30
2022-08-17T17:45:29.078Z,15.30
2022-08-17T17:47:57.550Z,14.30
2022-08-17T17:52:06.806Z,11.80
2022-08-17T18:00:09.014Z,20.20
2022-08-17T18:21:38.222Z,13.80
2022-08-17T18:25:00.575Z,16.50
2022-08-17T18:27:50.356Z,21.00
2022-08-17T18:31:54.305Z,16.50
2022-08-17T18:34:48.348Z,13.80
2022-08-17T18:41:23.898Z,11.30
2022-08-17T18:44:07.377Z,12.00
2022-08-17T18:46:38.429Z,15.60
2022-08-17T18:49:28.494Z,12.20
2022-08-17T18:52:27.186Z,12.20
2022-08-17T18:55:18.819Z,13.60
2022-08-17T18:57:52.894Z,15.40
2022-08-17T19:00:40.624Z,13.30
2022-08-17T19:03:23.714Z,12.70
2022-08-17T19:06:11.118Z,12.60
2022-08-17T19:08:40.103Z,14.20
2022-08-17T19:11:50.825Z,16.60
2022-08-17T19:14:31.806Z,22.00
2022-08-17T19:18:17.668Z,21.00
2022-08-17T19:21:02.991Z,23.50
2022-08-17T19:23:53.427Z,22.70
2022-08-17T19:26:54.856Z,22.30
2022-08-17T19:29:25.743Z,28.70
2022-08-17T19:31:59.401Z,37.10
2022-08-17T19:34:33.285Z,31.70
2022-08-17T19:37:13.301Z,22.40
2022-08-17T19:40:51.117Z,17.80
2022-08-17T19:44:07.672Z,15.20
2022-08-17T19:47:01.512Z,15.00
2022-08-17T19:49:54.936Z,14.00
2022-08-17T19:52:50.055Z,17.30
2022-08-17T19:55:45.933Z,18.80
2022-08-17T19:58:49.176Z,19.80
2022-08-17T20:02:03.582Z,20.30
2022-08-17T20:04:43.714Z,16.70
2022-08-17T20:07:54.390Z,18.00
2022-08-17T20:10:59.149Z,19.70
2022-08-17T20:13:49.354Z,20.00
2022-08-17T20:16:20.550Z,20.40
2022-08-17T20:18:59.827Z,18.70
2022-08-17T20:21:49.912Z,18.30
2022-08-17T20:24:56.678Z,16.90
2022-08-17T20:37:12.303Z,16.90
2022-08-17T20:44:24.516Z,16.10
2022-08-17T20:47:27.339Z,15.60
2022-08-17T20:50:36.370Z,14.40
2022-08-17T20:57:35.509Z,14.70
2022-08-17T21:24:54.215Z,13.10
2022-08-17T21:45:43.474Z,15.70
2022-08-17T21:48:43.841Z,14.60
2022-08-17T21:56:18.971Z,12.50
2022-08-17T21:58:13.505Z,11.70
2022-08-17T22:02:12.735Z,12.40
2022-08-17T22:18:29.481Z,11.70
2022-08-17T22:21:04.881Z,11.80
2022-08-17T22:24:19.496Z,11.70
2022-08-17T22:27:14.466Z,12.00
2022-08-17T22:30:24.520Z,11.60
2022-08-17T22:33:39.921Z,11.50
2022-08-17T22:37:15.227Z,12.40
2022-08-17T22:41:30.742Z,13.60
2022-08-17T22:44:56.926Z,12.80
2022-08-17T22:48:12.735Z,12.20
2022-08-17T22:54:46.561Z,10.90
2022-08-17T22:57:55.038Z,10.90
2022-08-17T23:01:47.059Z,11.70
2022-08-17T23:04:36.801Z,12.00
2022-08-17T23:07:06.750Z,12.00
2022-08-17T23:09:36.024Z,11.40
2022-08-17T23:12:08.770Z,10.50
2022-08-17T23:14:39.354Z,12.00
2022-08-17T23:17:08.052Z,11.80
2022-08-17T23:19:36.031Z,10.80
2022-08-17T23:22:06.561Z,11.00
2022-08-17T23:24:40.696Z,11.40
2022-08-17T23:27:08.510Z,10.90
2022-08-17T23:29:39.371Z,10.70
2022-08-17T23:32:09.895Z,10.90
2022-08-17T23:34:39.690Z,11.80
2022-08-17T23:37:09.838Z,10.60
2022-08-17T23:39:38.015Z,12.10
2022-08-17T23:42:11.204Z,10.60
2022-08-17T23:44:41.810Z,11.30
2022-08-17T23:47:10.805Z,10.60
2022-08-17T23:49:40.621Z,11.60
2022-08-17T23:52:16.338Z,11.30
2022-08-17T23:54:47.319Z,11.30
2022-08-17T23:57:19.647Z,12.40
2022-08-17T23:59:47.648Z,14.20
